createdAt,value
2022-11-19T00:04:59.458Z,3.5
2022-11-19T00:09:59.623Z,3.4
2022-11-19T00:14:59.459Z,3.5
2022-11-19T00:19:59.749Z,3.6
2022-11-19T00:24:59.470Z,3.5
2022-11-19T00:29:59.430Z,3.4
2022-11-19T00:34:59.411Z,3.4
2022-11-19T00:39:59.762Z,3.3
2022-11-19T00:44:59.708Z,3.3
2022-11-19T00:49:59.394Z,3.2
2022-11-19T00:54:59.608Z,3.4
2022-11-19T00:59:59.458Z,3.5
2022-11-19T01:04:59.444Z,3.2
2022-11-19T01:09:59.573Z,3.2
2022-11-19T01:14:59.643Z,3.1
2022-11-19T01:19:59.440Z,3.2
2022-11-19T01:24:59.410Z,3
2022-11-19T01:29:59.347Z,3
2022-11-19T01:34:59.459Z,3.1
2022-11-19T01:39:59.532Z,3
2022-11-19T01:44:59.321Z,3
2022-11-19T01:49:59.491Z,2.8
2022-11-19T01:54:59.606Z,2.9
2022-11-19T01:59:59.671Z,2.9
2022-11-19T02:04:59.575Z,3
2022-11-19T02:09:59.284Z,2.8
2022-11-19T02:15:18.966Z,3
2022-11-19T02:19:59.519Z,2.8
2022-11-19T02:24:59.333Z,2.8
2022-11-19T02:30:04.410Z,2.8
2022-11-19T02:34:59.354Z,2.9
2022-11-19T02:39:59.642Z,2.8
2022-11-19T02:44:59.295Z,2.8
2022-11-19T02:49:59.583Z,2.6
2022-11-19T02:54:59.607Z,2.7
2022-11-19T02:59:59.405Z,2.7
2022-11-19T03:04:59.343Z,2.5
2022-11-19T03:09:59.352Z,2.5
2022-11-19T03:14:59.188Z,2.5
2022-11-19T03:19:59.560Z,2.5
2022-11-19T03:24:59.251Z,2.3
2022-11-19T03:30:00.785Z,2.2
2022-11-19T03:34:59.468Z,2.3
2022-11-19T03:39:59.184Z,2.2
2022-11-19T03:44:59.209Z,2.1
2022-11-19T03:50:05.833Z,2.1
2022-11-19T03:54:59.530Z,2.1
2022-11-19T03:59:59.618Z,2.1
2022-11-19T04:04:59.549Z,2.2
2022-11-19T04:09:59.500Z,1.9
2022-11-19T04:14:59.200Z,1.8
2022-11-19T04:19:59.392Z,1.8
2022-11-19T04:24:59.277Z,1.8
2022-11-19T04:29:59.475Z,1.7
2022-11-19T04:34:59.300Z,1.8
2022-11-19T04:39:59.423Z,1.6
2022-11-19T04:44:59.449Z,1.5
2022-11-19T04:49:59.367Z,1.5
2022-11-19T04:54:59.459Z,1.4
2022-11-19T04:59:59.481Z,1.3
2022-11-19T05:04:59.481Z,1.3
2022-11-19T05:09:59.468Z,1.4
2022-11-19T05:14:59.334Z,1.3
2022-11-19T05:19:59.280Z,1.2
2022-11-19T05:24:59.294Z,1.3
2022-11-19T05:29:59.111Z,1.2
2022-11-19T05:34:59.304Z,1.3
2022-11-19T05:39:59.275Z,1.3
2022-11-19T05:44:59.038Z,1.3
2022-11-19T05:49:59.348Z,1.2
2022-11-19T05:54:59.278Z,1.1
2022-11-19T05:59:59.234Z,1
2022-11-19T06:04:59.083Z,1.1
2022-11-19T06:09:59.397Z,1.1
2022-11-19T06:14:59.358Z,1.1
2022-11-19T06:19:59.283Z,0.9
2022-11-19T06:24:59.068Z,0.9
2022-11-19T06:29:59.504Z,0.9
2022-11-19T06:34:59.322Z,0.9
2022-11-19T06:39:59.097Z,0.9
2022-11-19T06:44:59.137Z,0.9
2022-11-19T06:49:59.195Z,0.8
2022-11-19T06:54:59.128Z,0.7
2022-11-19T06:59:59.117Z,0.8
2022-11-19T07:04:59.268Z,0.8
2022-11-19T07:09:59.210Z,0.7
2022-11-19T07:15:03.986Z,0.6
2022-11-19T07:19:59.087Z,0.6
2022-11-19T07:24:59.334Z,0.6
2022-11-19T07:29:59.188Z,0.4
2022-11-19T07:34:59.168Z,0.5
2022-11-19T07:39:59.123Z,0.4
2022-11-19T07:44:59.244Z,0.7
2022-11-19T07:49:59.060Z,0.5
2022-11-19T07:54:59.000Z,0.5
2022-11-19T07:59:59.240Z,0.3
2022-11-19T08:04:59.124Z,0.5
2022-11-19T08:09:59.459Z,0.5
2022-11-19T08:14:59.085Z,0.3
2022-11-19T08:19:59.027Z,0.3
2022-11-19T08:24:59.061Z,0.4
2022-11-19T08:29:59.219Z,0.4
2022-11-19T08:34:58.986Z,0.1
2022-11-19T08:39:59.134Z,-0.1
2022-11-19T08:44:58.901Z,-0.2
2022-11-19T08:49:59.058Z,-0.3
2022-11-19T08:54:58.977Z,-0.4
2022-11-19T09:00:05.515Z,-0.4
2022-11-19T09:04:59.306Z,-0.3
2022-11-19T09:09:58.855Z,-0.4
2022-11-19T09:14:59.184Z,-0.6
2022-11-19T09:19:59.358Z,-0.5
2022-11-19T09:24:59.009Z,-0.4
2022-11-19T09:29:58.921Z,-0.3
2022-11-19T09:34:59.005Z,-0.4
2022-11-19T09:39:58.855Z,-0.4
2022-11-19T09:44:58.997Z,-0.3
2022-11-19T09:49:58.934Z,-0.1
2022-11-19T09:54:59.098Z,-0.2
2022-11-19T09:59:59.020Z,-0.5
2022-11-19T10:04:58.816Z,-0.1
2022-11-19T10:09:59.113Z,-0.1
2022-11-19T10:15:08.014Z,0.2
2022-11-19T10:20:08.827Z,0.3
2022-11-19T10:24:58.857Z,0.2
2022-11-19T10:29:59.169Z,0.3
2022-11-19T10:34:58.933Z,0.3
2022-11-19T10:39:58.834Z,0.3
2022-11-19T10:44:58.865Z,0.3
2022-11-19T10:49:58.898Z,0.6
2022-11-19T10:54:58.983Z,0.8
2022-11-19T10:59:58.856Z,0.9
2022-11-19T11:04:59.063Z,1
2022-11-19T11:09:58.775Z,1.1
2022-11-19T11:14:58.764Z,1.3
2022-11-19T11:19:58.940Z,1.6
2022-11-19T11:25:02.698Z,1.7
2022-11-19T11:29:59.147Z,2
2022-11-19T11:35:03.485Z,2.1
2022-11-19T11:39:58.721Z,2.1
2022-11-19T11:44:58.783Z,2.3
2022-11-19T11:49:58.729Z,2.4
2022-11-19T11:54:59.041Z,3.2
2022-11-19T11:59:59.563Z,3.8
2022-11-19T12:04:58.937Z,3.9
2022-11-19T12:09:59.013Z,2.3
2022-11-19T12:14:58.762Z,2.2
2022-11-19T12:19:58.876Z,1.6
2022-11-19T12:24:58.824Z,1.6
2022-11-19T12:29:59.025Z,1.7
2022-11-19T12:34:59.066Z,1.8
2022-11-19T12:39:58.707Z,2
2022-11-19T12:44:58.835Z,2
2022-11-19T12:49:58.797Z,2
2022-11-19T12:54:58.632Z,2.2
2022-11-19T13:00:15.224Z,2.1
2022-11-19T13:04:58.794Z,2
2022-11-19T13:09:58.875Z,2.1
2022-11-19T13:15:01.471Z,2.2
2022-11-19T13:20:01.029Z,2.2
2022-11-19T13:24:58.599Z,2
2022-11-19T13:29:58.697Z,2.1
2022-11-19T13:34:58.638Z,2.3
2022-11-19T13:39:58.659Z,2.1
2022-11-19T13:44:58.650Z,2.3
2022-11-19T13:49:58.685Z,2.3
2022-11-19T13:54:58.618Z,2.2
2022-11-19T13:59:58.963Z,2.3
2022-11-19T14:04:58.956Z,2.3
2022-11-19T14:10:01.971Z,2.4
2022-11-19T14:14:58.861Z,2.5
2022-11-19T14:19:58.912Z,2.6
2022-11-19T14:24:58.674Z,2.6
2022-11-19T14:29:58.677Z,2.8
2022-11-19T14:34:58.768Z,2.6
2022-11-19T14:40:00.138Z,2.7
2022-11-19T14:44:58.736Z,2.5
2022-11-19T14:49:58.671Z,2.7
2022-11-19T14:54:58.506Z,2.5
2022-11-19T14:59:58.758Z,2.7
2022-11-19T15:04:58.605Z,2.6
2022-11-19T15:09:58.873Z,2.4
2022-11-19T15:14:58.792Z,2.5
2022-11-19T15:19:58.697Z,2.3
2022-11-19T15:24:58.621Z,2.2
2022-11-19T15:29:58.555Z,2.2
2022-11-19T15:35:13.738Z,2.1
2022-11-19T15:39:58.564Z,2
2022-11-19T15:44:58.691Z,2
2022-11-19T15:49:58.615Z,1.9
2022-11-19T15:54:58.605Z,2
2022-11-19T15:59:58.804Z,1.8
2022-11-19T16:04:58.592Z,1.6
2022-11-19T16:09:58.568Z,1.6
2022-11-19T16:14:58.550Z,1.5
2022-11-19T16:19:58.654Z,1.4
2022-11-19T16:24:58.451Z,1.4
2022-11-19T16:29:58.835Z,1.4
2022-11-19T16:34:58.648Z,1.2
2022-11-19T16:39:58.736Z,1.3
2022-11-19T16:44:58.657Z,1.3
2022-11-19T16:49:58.586Z,1.1
2022-11-19T16:54:58.383Z,1.1
2022-11-19T16:59:58.542Z,0.9
2022-11-19T17:04:58.450Z,0.9
2022-11-19T17:09:58.595Z,0.9
2022-11-19T17:14:58.427Z,0.8
2022-11-19T17:19:58.725Z,0.7
2022-11-19T17:24:58.489Z,0.7
2022-11-19T17:29:58.639Z,0.5
2022-11-19T17:34:58.748Z,0.5
2022-11-19T17:39:58.584Z,0.5
2022-11-19T17:44:58.630Z,0.3
2022-11-19T17:50:00.386Z,0.4
2022-11-19T17:55:00.496Z,0.4
2022-11-19T18:00:00.451Z,0.3
2022-11-19T18:05:00.343Z,0.3
2022-11-19T18:10:00.462Z,0.1
2022-11-19T18:15:02.132Z,0
2022-11-19T18:20:00.369Z,0.1
2022-11-19T18:25:00.420Z,0.1
2022-11-19T18:30:00.386Z,-0.1
2022-11-19T18:35:01.930Z,0.2
2022-11-19T18:40:00.407Z,-0.1
2022-11-19T18:45:00.427Z,-0.2
2022-11-19T18:50:00.403Z,-0.4
2022-11-19T18:55:00.531Z,-0.5
2022-11-19T19:00:00.407Z,-0.5
2022-11-19T19:05:00.454Z,-0.3
2022-11-19T19:10:00.347Z,-0.5
2022-11-19T19:15:00.151Z,-0.6
2022-11-19T19:20:00.203Z,-0.6
2022-11-19T19:25:00.303Z,-0.6
2022-11-19T19:30:00.407Z,-0.5
2022-11-19T19:35:00.157Z,-0.7
2022-11-19T19:40:00.362Z,-0.7
2022-11-19T19:45:00.359Z,-0.7
2022-11-19T19:50:00.418Z,-0.6
2022-11-19T19:55:00.460Z,-0.7
2022-11-19T20:00:00.374Z,-0.9
2022-11-19T20:05:00.323Z,-1
2022-11-19T20:10:00.110Z,-0.8
2022-11-19T20:15:00.142Z,-1
2022-11-19T20:20:00.314Z,-0.9
2022-11-19T20:25:00.060Z,-0.7
2022-11-19T20:30:00.458Z,-1.1
2022-11-19T20:35:00.136Z,-0.8
2022-11-19T20:40:00.181Z,-0.9
2022-11-19T20:45:00.373Z,-1.1
2022-11-19T20:50:00.095Z,-1.1
2022-11-19T20:55:05.248Z,-1
2022-11-19T21:00:00.400Z,-1
2022-11-19T21:05:00.406Z,-1.2
2022-11-19T21:10:04.907Z,-1.1
2022-11-19T21:15:00.150Z,-1.3
2022-11-19T21:20:00.353Z,-1.2
2022-11-19T21:25:00.222Z,-1.4
2022-11-19T21:30:00.394Z,-1.3
2022-11-19T21:35:00.310Z,-1
2022-11-19T21:40:00.351Z,-1.2
2022-11-19T21:45:00.052Z,-1.3
2022-11-19T21:50:00.361Z,-1
2022-11-19T21:55:00.332Z,-1.4
2022-11-19T22:00:00.041Z,-1.3
2022-11-19T22:05:00.126Z,-1.6
2022-11-19T22:09:59.975Z,-1.4
2022-11-19T22:15:00.161Z,-1.5
2022-11-19T22:19:59.945Z,-1.5
2022-11-19T22:25:00.181Z,-1.3
2022-11-19T22:30:04.544Z,-1.3
2022-11-19T22:34:59.956Z,-1.4
2022-11-19T22:39:59.944Z,-1.2
2022-11-19T22:45:00.158Z,-1.5
2022-11-19T22:50:00.480Z,-0.9
2022-11-19T22:55:00.135Z,-0.9
2022-11-19T23:00:00.024Z,-1.1
2022-11-19T23:05:00.525Z,-1.3
2022-11-19T23:10:00.081Z,-1.3
2022-11-19T23:15:00.438Z,-1.8
2022-11-19T23:20:04.650Z,-1.8
2022-11-19T23:24:59.970Z,-1.9
2022-11-19T23:30:00.394Z,-1.7
2022-11-19T23:35:00.089Z,-2
2022-11-19T23:40:00.091Z,-2
2022-11-19T23:45:00.054Z,-1.8
2022-11-19T23:49:59.919Z,-1.9
2022-11-19T23:55:00.156Z,-1.8
2022-11-19T23:59:59.926Z,-1.9
